Main page
METAR-TAF:

METAR-TAF

Airports :

Gwadar, Pakistan

Gwadar International Airport

latitude: 25-13-59N, longitude: 062-19-46E, elevation: 29 m

METAR: missing

Time: 08:40 (03:40 UTC)

Forecast

The report was made 6 hours and 10 minutes ago, at 21:30 UTC
Forecast valid from 29 at 00 UTC to 29 at 24 UTC
Wind 3 kt from variable directions
Visibility: 3000 m
smoke
From UTC
Wind 5 kt from the South with gusts up to 15 kt
Visibility: 6000 m
Few clouds at a height of 2000 ft
From UTC
Wind 5 kt from the Southwest with gusts up to 15 kt
Visibility: 5000 m
Few clouds at a height of 2000 ft
haze
Becoming
from 29 at 17 UTC to 29 at 19 UTC
Wind 5 kt from the North/Northwest
Visibility: 5000 m
haze

TAF: OPGD 282130Z 2900/2924 VRB03KT 3000 FU NSC FM 290500 18005G15KT 6000 FEW020 FM 291200 23005G15KT 5000 HZ FEW020 BECMG 2917/2919 33005KT 5000 HZ NSC

Weather observations and forecasts of more than 4000 airports (METAR and TAF reports).

The available stations are represented by yellow and red dots on the map.

Hover mouse over dot to see the name of the station.

Then click to see weather observations and forecasts.

To change the map : click on the green buttons with a black cross to zoom in, on the green button with a dash to zoom out, or on the green arrows for adjacent maps.


METAR-TAF: